Home   Weather   Slovakia   Bratislava   Past weeks
Flag for Slovakia

Past Weather in Bratislava, Slovakia — Yesterday and Last 2 Weeks

Currently: 68 °F. Sunny. (Weather station: Bratislava Ivanka, Slovakia). See more current weather

Past Weather in Bratislava — Graph

°F

Bratislava Temperature Yesterday

Maximum temperature yesterday: 84 °F (at 3:30 pm)
Minimum temperature yesterday: 59 °F (at 4:00 am)
Average temperature yesterday: 73 °F

High & Low Weather Summary for the Past Weeks

 TemperatureHumidityPressure
High84 °F (Jun 16, 3:30 pm)88% (Jun 5, 4:30 am)30.27 "Hg (Jun 5, 4:30 am)
Low50 °F (Jun 3, 4:00 am)25% (Jun 16, 4:30 pm)29.92 "Hg (Jun 12, 7:30 pm)
Average69 °F55%30.09 "Hg
* Reported Jun 2 6:00 am — Jun 17 6:00 am, Bratislava. Weather by CustomWeather, © 2021

Note: Actual official high and low records may vary slightly from our data, if they occured in-between our weather recording intervals... More about our weather records

Bratislava Weather History for the Previous 24 Hours

Scroll right to see more
 ConditionsComfort  
Time TempWeatherWind HumidityBarometerVisibility
6:00 am
Thu, Jun 17
63 °FPassing clouds.5 mph77%30.07 "HgN/A
5:30 am61 °FSunny.7 mph77%30.07 "Hg10 mi
5:00 am61 °FSunny.5 mph77%30.07 "Hg10 mi
4:30 am61 °FClear.6 mph77%30.07 "Hg10 mi
4:00 am61 °FPassing clouds.5 mph77%30.07 "HgN/A
3:30 am61 °FClear.5 mph77%30.07 "Hg10 mi
3:00 am61 °FClear.6 mph77%30.07 "Hg10 mi
2:30 am63 °FClear.5 mph73%30.07 "Hg10 mi
2:00 am64 °FClear.1 mph68%30.07 "Hg10 mi
1:30 am64 °FClear.2 mph68%30.04 "Hg10 mi
1:00 am64 °FClear.3 mph68%30.04 "Hg10 mi
12:30 am64 °FClear.3 mph68%30.04 "Hg10 mi
12:00 am66 °FClear.2 mph64%30.04 "Hg10 mi
11:30 pm
Wed, Jun 16
66 °FClear.2 mph64%30.04 "Hg10 mi
11:00 pm68 °FClear.3 mph60%30.04 "Hg10 mi
10:30 pm70 °FClear.5 mph57%30.04 "Hg10 mi
10:00 pm70 °FClear.5 mph60%30.04 "Hg10 mi
9:30 pm72 °FPassing clouds.3 mph53%30.04 "HgN/A
9:00 pm75 °FClear.5 mph47%30.01 "Hg10 mi
8:30 pm79 °FSunny.3 mph39%30.01 "Hg10 mi
8:00 pm79 °FSunny.5 mph39%30.01 "Hg10 mi
7:30 pm82 °FSunny.5 mph32%30.01 "Hg10 mi
7:00 pm82 °FPassing clouds.5 mph30%30.01 "HgN/A
6:30 pm84 °FPassing clouds.6 mph27%30.01 "HgN/A
6:00 pm84 °FPassing clouds.6 mph27%30.01 "HgN/A
5:30 pm84 °FPassing clouds.6 mph29%30.01 "HgN/A
5:00 pm84 °FSunny.5 mph27%30.01 "Hg10 mi
4:30 pm84 °FSunny.5 mph25%30.01 "Hg10 mi
4:00 pm84 °FSunny.5 mph29%30.01 "Hg10 mi
3:30 pm84 °FPassing clouds.7 mph29%30.04 "HgN/A
3:00 pm82 °FSunny.5 mph32%30.04 "Hg10 mi
2:30 pm82 °FSunny.3 mph35%30.04 "Hg10 mi
2:00 pm81 °FSunny.3 mph34%30.04 "Hg10 mi
1:30 pm81 °FSunny.2 mph37%30.07 "Hg10 mi
1:00 pm81 °FSunny.3 mph37%30.07 "Hg10 mi
12:30 pm79 °FSunny.3 mph39%30.07 "Hg10 mi
12:00 pm79 °FPassing clouds.5 mph39%30.07 "HgN/A
11:30 am77 °FPassing clouds.7 mph42%30.07 "HgN/A
11:00 am77 °FPassing clouds.8 mph44%30.07 "HgN/A
10:30 am75 °FPassing clouds.6 mph47%30.07 "HgN/A
10:00 am73 °FPassing clouds.7 mph50%30.07 "HgN/A
9:30 am73 °FPassing clouds.7 mph50%30.07 "HgN/A
9:00 am73 °FPassing clouds.8 mph44%30.07 "HgN/A
8:30 am72 °FSunny.8 mph47%30.07 "Hg10 mi
8:00 am68 °FSunny.5 mph53%30.07 "Hg10 mi
7:30 am66 °FSunny.5 mph60%30.07 "Hg10 mi
7:00 am64 °FSunny.2 mph64%30.04 "Hg10 mi
Weather by CustomWeather, © 2021

See weather overview